sensor_id;sensor_type;location;lat;lon;timestamp;temperature;humidity
35563;DHT22;21665;40.108;18.302;2024-02-21T00:01:44;9.90;99.90
35563;DHT22;21665;40.108;18.302;2024-02-21T00:04:12;9.90;99.90
35563;DHT22;21665;40.108;18.302;2024-02-21T00:06:39;10.00;99.90
35563;DHT22;21665;40.108;18.302;2024-02-21T00:09:06;9.90;99.90
35563;DHT22;21665;40.108;18.302;2024-02-21T00:11:33;9.90;99.90
35563;DHT22;21665;40.108;18.302;2024-02-21T00:14:00;9.90;99.90
35563;DHT22;21665;40.108;18.302;2024-02-21T00:16:27;9.80;99.90
35563;DHT22;21665;40.108;18.302;2024-02-21T00:18:53;9.80;99.90
35563;DHT22;21665;40.108;18.302;2024-02-21T00:21:20;9.80;99.90
35563;DHT22;21665;40.108;18.302;2024-02-21T00:23:47;9.70;99.90
35563;DHT22;21665;40.108;18.302;2024-02-21T00:26:16;9.60;99.90
35563;DHT22;21665;40.108;18.302;2024-02-21T00:28:42;9.50;99.90
35563;DHT22;21665;40.108;18.302;2024-02-21T00:31:12;9.50;99.90
35563;DHT22;21665;40.108;18.302;2024-02-21T00:33:39;9.40;99.90
35563;DHT22;21665;40.108;18.302;2024-02-21T00:36:06;9.40;99.90
35563;DHT22;21665;40.108;18.302;2024-02-21T00:38:33;9.40;99.90
35563;DHT22;21665;40.108;18.302;2024-02-21T00:41:00;9.40;99.90
35563;DHT22;21665;40.108;18.302;2024-02-21T00:43:27;9.40;99.90
35563;DHT22;21665;40.108;18.302;2024-02-21T00:45:53;9.30;99.90
35563;DHT22;21665;40.108;18.302;2024-02-21T00:48:20;9.30;99.90
35563;DHT22;21665;40.108;18.302;2024-02-21T00:50:50;9.30;99.90
35563;DHT22;21665;40.108;18.302;2024-02-21T00:53:18;9.20;99.90
35563;DHT22;21665;40.108;18.302;2024-02-21T00:55:45;9.20;99.90
35563;DHT22;21665;40.108;18.302;2024-02-21T00:58:14;9.10;99.90
35563;DHT22;21665;40.108;18.302;2024-02-21T01:00:40;9.10;99.90
35563;DHT22;21665;40.108;18.302;2024-02-21T01:03:07;9.00;99.90
35563;DHT22;21665;40.108;18.302;2024-02-21T01:05:34;9.00;99.90
35563;DHT22;21665;40.108;18.302;2024-02-21T01:08:04;9.00;99.90
35563;DHT22;21665;40.108;18.302;2024-02-21T01:10:31;9.00;99.90
35563;DHT22;21665;40.108;18.302;2024-02-21T01:13:03;9.00;99.90
35563;DHT22;21665;40.108;18.302;2024-02-21T01:15:31;9.00;99.90
35563;DHT22;21665;40.108;18.302;2024-02-21T01:17:57;8.90;99.90
35563;DHT22;21665;40.108;18.302;2024-02-21T01:20:24;8.90;99.90
35563;DHT22;21665;40.108;18.302;2024-02-21T01:22:50;8.90;99.90
35563;DHT22;21665;40.108;18.302;2024-02-21T01:25:17;8.90;99.90
35563;DHT22;21665;40.108;18.302;2024-02-21T01:27:44;8.80;99.90
35563;DHT22;21665;40.108;18.302;2024-02-21T01:30:12;8.80;99.90
35563;DHT22;21665;40.108;18.302;2024-02-21T01:32:39;8.80;99.90
35563;DHT22;21665;40.108;18.302;2024-02-21T01:35:07;8.70;99.90
35563;DHT22;21665;40.108;18.302;2024-02-21T01:37:34;8.70;99.90
35563;DHT22;21665;40.108;18.302;2024-02-21T01:40:00;8.70;99.90
35563;DHT22;21665;40.108;18.302;2024-02-21T01:42:39;8.70;99.90
35563;DHT22;21665;40.108;18.302;2024-02-21T01:45:11;8.70;99.90
35563;DHT22;21665;40.108;18.302;2024-02-21T01:47:38;8.70;99.90
35563;DHT22;21665;40.108;18.302;2024-02-21T01:50:07;8.80;99.90
35563;DHT22;21665;40.108;18.302;2024-02-21T01:52:41;8.70;99.90
35563;DHT22;21665;40.108;18.302;2024-02-21T01:55:14;8.80;99.90
35563;DHT22;21665;40.108;18.302;2024-02-21T01:57:43;8.70;99.90
35563;DHT22;21665;40.108;18.302;2024-02-21T02:00:15;8.70;99.90
35563;DHT22;21665;40.108;18.302;2024-02-21T02:02:42;8.70;99.90
35563;DHT22;21665;40.108;18.302;2024-02-21T02:05:12;8.70;99.90
35563;DHT22;21665;40.108;18.302;2024-02-21T02:07:42;8.70;99.90
35563;DHT22;21665;40.108;18.302;2024-02-21T02:10:09;8.60;99.90
35563;DHT22;21665;40.108;18.302;2024-02-21T02:12:36;8.50;99.90
35563;DHT22;21665;40.108;18.302;2024-02-21T02:15:03;8.50;99.90
35563;DHT22;21665;40.108;18.302;2024-02-21T02:17:33;8.50;99.90
35563;DHT22;21665;40.108;18.302;2024-02-21T02:20:00;8.60;99.90
35563;DHT22;21665;40.108;18.302;2024-02-21T02:22:29;8.50;99.90
35563;DHT22;21665;40.108;18.302;2024-02-21T02:24:59;8.50;99.90
35563;DHT22;21665;40.108;18.302;2024-02-21T02:27:25;8.50;99.90
35563;DHT22;21665;40.108;18.302;2024-02-21T02:29:52;8.40;99.90
35563;DHT22;21665;40.108;18.302;2024-02-21T02:32:22;8.40;99.90
35563;DHT22;21665;40.108;18.302;2024-02-21T02:34:49;8.30;99.90
35563;DHT22;21665;40.108;18.302;2024-02-21T02:37:16;8.10;99.90
35563;DHT22;21665;40.108;18.302;2024-02-21T02:39:43;8.00;99.90
35563;DHT22;21665;40.108;18.302;2024-02-21T02:42:09;7.90;99.90
35563;DHT22;21665;40.108;18.302;2024-02-21T02:44:39;7.80;99.90
35563;DHT22;21665;40.108;18.302;2024-02-21T02:47:06;7.70;99.90
35563;DHT22;21665;40.108;18.302;2024-02-21T02:49:36;7.70;99.90
35563;DHT22;21665;40.108;18.302;2024-02-21T02:52:04;7.70;99.90
35563;DHT22;21665;40.108;18.302;2024-02-21T02:54:30;7.60;99.90
35563;DHT22;21665;40.108;18.302;2024-02-21T02:56:57;7.70;99.90
35563;DHT22;21665;40.108;18.302;2024-02-21T02:59:24;7.70;99.90
35563;DHT22;21665;40.108;18.302;2024-02-21T03:01:59;7.70;99.90
35563;DHT22;21665;40.108;18.302;2024-02-21T03:04:27;7.80;99.90
35563;DHT22;21665;40.108;18.302;2024-02-21T03:06:53;7.80;99.90
35563;DHT22;21665;40.108;18.302;2024-02-21T03:09:20;7.80;99.90
35563;DHT22;21665;40.108;18.302;2024-02-21T03:11:46;7.80;99.90
35563;DHT22;21665;40.108;18.302;2024-02-21T03:14:14;7.80;99.90
35563;DHT22;21665;40.108;18.302;2024-02-21T03:16:40;7.80;99.90
35563;DHT22;21665;40.108;18.302;2024-02-21T03:19:07;7.80;99.90
35563;DHT22;21665;40.108;18.302;2024-02-21T03:21:34;7.80;99.90
35563;DHT22;21665;40.108;18.302;2024-02-21T03:24:01;7.80;99.90
35563;DHT22;21665;40.108;18.302;2024-02-21T03:26:28;7.70;99.90
35563;DHT22;21665;40.108;18.302;2024-02-21T03:28:55;7.70;99.90
35563;DHT22;21665;40.108;18.302;2024-02-21T03:31:21;7.70;99.90
35563;DHT22;21665;40.108;18.302;2024-02-21T03:33:48;7.70;99.90
35563;DHT22;21665;40.108;18.302;2024-02-21T03:36:16;7.70;99.90
35563;DHT22;21665;40.108;18.302;2024-02-21T03:38:43;7.60;99.90
35563;DHT22;21665;40.108;18.302;2024-02-21T03:41:09;7.50;99.90
35563;DHT22;21665;40.108;18.302;2024-02-21T03:43:38;7.40;99.90
35563;DHT22;21665;40.108;18.302;2024-02-21T03:46:05;7.40;99.90
35563;DHT22;21665;40.108;18.302;2024-02-21T03:48:33;7.40;99.90
35563;DHT22;21665;40.108;18.302;2024-02-21T03:51:03;7.40;99.90
35563;DHT22;21665;40.108;18.302;2024-02-21T03:53:30;7.50;99.90
35563;DHT22;21665;40.108;18.302;2024-02-21T03:55:56;7.60;99.90
35563;DHT22;21665;40.108;18.302;2024-02-21T03:58:26;7.40;99.90
35563;DHT22;21665;40.108;18.302;2024-02-21T04:00:53;7.10;99.90
35563;DHT22;21665;40.108;18.302;2024-02-21T04:03:20;6.90;99.90
35563;DHT22;21665;40.108;18.302;2024-02-21T04:05:47;6.80;99.90
35563;DHT22;21665;40.108;18.302;2024-02-21T04:08:15;6.80;99.90
35563;DHT22;21665;40.108;18.302;2024-02-21T04:10:41;6.80;99.90
35563;DHT22;21665;40.108;18.302;2024-02-21T04:13:09;6.80;99.90
35563;DHT22;21665;40.108;18.302;2024-02-21T04:15:36;6.70;99.90
35563;DHT22;21665;40.108;18.302;2024-02-21T04:18:03;6.70;99.90
35563;DHT22;21665;40.108;18.302;2024-02-21T04:20:30;6.80;99.90
35563;DHT22;21665;40.108;18.302;2024-02-21T04:22:58;6.90;99.90
35563;DHT22;21665;40.108;18.302;2024-02-21T04:25:25;6.80;99.90
35563;DHT22;21665;40.108;18.302;2024-02-21T04:27:53;6.70;99.90
35563;DHT22;21665;40.108;18.302;2024-02-21T04:30:19;6.60;99.90
35563;DHT22;21665;40.108;18.302;2024-02-21T04:32:47;6.50;99.90
35563;DHT22;21665;40.108;18.302;2024-02-21T04:35:14;6.50;99.90
35563;DHT22;21665;40.108;18.302;2024-02-21T04:37:41;6.50;99.90
35563;DHT22;21665;40.108;18.302;2024-02-21T04:40:09;6.50;99.90
35563;DHT22;21665;40.108;18.302;2024-02-21T04:42:36;6.40;99.90
35563;DHT22;21665;40.108;18.302;2024-02-21T04:45:04;6.40;99.90
35563;DHT22;21665;40.108;18.302;2024-02-21T04:47:32;6.40;99.90
35563;DHT22;21665;40.108;18.302;2024-02-21T04:49:59;6.30;99.90
35563;DHT22;21665;40.108;18.302;2024-02-21T04:52:29;6.20;99.90
35563;DHT22;21665;40.108;18.302;2024-02-21T04:54:56;6.20;99.90
35563;DHT22;21665;40.108;18.302;2024-02-21T04:57:24;6.20;99.90
35563;DHT22;21665;40.108;18.302;2024-02-21T04:59:52;6.20;99.90
35563;DHT22;21665;40.108;18.302;2024-02-21T05:02:19;6.30;99.90
35563;DHT22;21665;40.108;18.302;2024-02-21T05:04:50;6.40;99.90
35563;DHT22;21665;40.108;18.302;2024-02-21T05:07:17;6.50;99.90
35563;DHT22;21665;40.108;18.302;2024-02-21T05:09:54;6.70;99.90
35563;DHT22;21665;40.108;18.302;2024-02-21T05:12:27;6.60;99.90
35563;DHT22;21665;40.108;18.302;2024-02-21T05:14:57;6.50;99.90
35563;DHT22;21665;40.108;18.302;2024-02-21T05:17:24;6.40;99.90
35563;DHT22;21665;40.108;18.302;2024-02-21T05:19:51;6.30;99.90
35563;DHT22;21665;40.108;18.302;2024-02-21T05:22:18;6.40;99.90
35563;DHT22;21665;40.108;18.302;2024-02-21T05:24:47;6.30;99.90
35563;DHT22;21665;40.108;18.302;2024-02-21T05:27:14;6.20;99.90
35563;DHT22;21665;40.108;18.302;2024-02-21T05:29:41;6.10;99.90
35563;DHT22;21665;40.108;18.302;2024-02-21T05:32:10;6.10;99.90
35563;DHT22;21665;40.108;18.302;2024-02-21T05:34:40;6.10;99.90
35563;DHT22;21665;40.108;18.302;2024-02-21T05:37:07;6.00;99.90
35563;DHT22;21665;40.108;18.302;2024-02-21T05:39:34;5.90;99.90
35563;DHT22;21665;40.108;18.302;2024-02-21T05:42:01;5.90;99.90
35563;DHT22;21665;40.108;18.302;2024-02-21T05:44:31;5.90;99.90
35563;DHT22;21665;40.108;18.302;2024-02-21T05:46:58;5.90;99.90
35563;DHT22;21665;40.108;18.302;2024-02-21T05:49:31;5.80;99.90
35563;DHT22;21665;40.108;18.302;2024-02-21T05:51:59;5.90;99.90
35563;DHT22;21665;40.108;18.302;2024-02-21T05:54:25;5.90;99.90
35563;DHT22;21665;40.108;18.302;2024-02-21T05:56:53;5.90;99.90
35563;DHT22;21665;40.108;18.302;2024-02-21T05:59:20;5.90;99.90
35563;DHT22;21665;40.108;18.302;2024-02-21T06:01:56;6.00;99.90
35563;DHT22;21665;40.108;18.302;2024-02-21T06:04:24;6.00;99.90
35563;DHT22;21665;40.108;18.302;2024-02-21T06:06:51;6.10;99.90
35563;DHT22;21665;40.108;18.302;2024-02-21T06:09:21;6.30;99.90
35563;DHT22;21665;40.108;18.302;2024-02-21T06:11:48;6.50;99.90
35563;DHT22;21665;40.108;18.302;2024-02-21T06:14:15;6.70;99.90
35563;DHT22;21665;40.108;18.302;2024-02-21T06:16:43;7.00;99.90
35563;DHT22;21665;40.108;18.302;2024-02-21T06:19:10;7.20;99.90
35563;DHT22;21665;40.108;18.302;2024-02-21T06:21:37;7.40;99.90
35563;DHT22;21665;40.108;18.302;2024-02-21T06:24:04;7.30;99.90
35563;DHT22;21665;40.108;18.302;2024-02-21T06:26:31;7.40;99.90
35563;DHT22;21665;40.108;18.302;2024-02-21T06:29:01;7.70;99.90
35563;DHT22;21665;40.108;18.302;2024-02-21T06:31:28;8.20;99.90
35563;DHT22;21665;40.108;18.302;2024-02-21T06:33:55;8.80;99.90
35563;DHT22;21665;40.108;18.302;2024-02-21T06:36:22;9.20;99.90
35563;DHT22;21665;40.108;18.302;2024-02-21T06:38:49;9.90;99.90
35563;DHT22;21665;40.108;18.302;2024-02-21T06:41:16;10.50;99.90
35563;DHT22;21665;40.108;18.302;2024-02-21T06:43:48;10.80;99.90
35563;DHT22;21665;40.108;18.302;2024-02-21T06:46:26;11.20;99.90
35563;DHT22;21665;40.108;18.302;2024-02-21T06:48:55;11.40;99.90
35563;DHT22;21665;40.108;18.302;2024-02-21T06:51:23;11.60;99.90
35563;DHT22;21665;40.108;18.302;2024-02-21T06:53:55;11.80;99.90
35563;DHT22;21665;40.108;18.302;2024-02-21T06:56:26;12.10;99.90
35563;DHT22;21665;40.108;18.302;2024-02-21T06:58:58;12.30;99.90
35563;DHT22;21665;40.108;18.302;2024-02-21T07:01:25;12.70;99.90
35563;DHT22;21665;40.108;18.302;2024-02-21T07:03:52;13.00;99.90
35563;DHT22;21665;40.108;18.302;2024-02-21T07:06:19;13.10;99.90
35563;DHT22;21665;40.108;18.302;2024-02-21T07:08:46;13.20;99.90
35563;DHT22;21665;40.108;18.302;2024-02-21T07:11:13;13.50;99.90
35563;DHT22;21665;40.108;18.302;2024-02-21T07:13:39;13.50;99.90
35563;DHT22;21665;40.108;18.302;2024-02-21T07:16:09;13.80;99.90
35563;DHT22;21665;40.108;18.302;2024-02-21T07:18:48;14.00;99.90
35563;DHT22;21665;40.108;18.302;2024-02-21T07:21:14;14.20;99.90
35563;DHT22;21665;40.108;18.302;2024-02-21T07:23:42;14.50;99.90
35563;DHT22;21665;40.108;18.302;2024-02-21T07:26:09;14.60;99.90
35563;DHT22;21665;40.108;18.302;2024-02-21T07:28:35;14.80;99.90
35563;DHT22;21665;40.108;18.302;2024-02-21T07:31:03;14.90;99.90
35563;DHT22;21665;40.108;18.302;2024-02-21T07:33:30;15.00;99.90
35563;DHT22;21665;40.108;18.302;2024-02-21T07:35:57;15.20;99.90
35563;DHT22;21665;40.108;18.302;2024-02-21T07:38:24;15.00;99.90
35563;DHT22;21665;40.108;18.302;2024-02-21T07:40:51;15.20;99.90
35563;DHT22;21665;40.108;18.302;2024-02-21T07:43:20;15.50;99.90
35563;DHT22;21665;40.108;18.302;2024-02-21T07:45:48;15.50;99.90
35563;DHT22;21665;40.108;18.302;2024-02-21T07:48:15;15.80;99.90
35563;DHT22;21665;40.108;18.302;2024-02-21T07:50:43;16.00;99.90
35563;DHT22;21665;40.108;18.302;2024-02-21T07:53:10;16.30;99.90
35563;DHT22;21665;40.108;18.302;2024-02-21T07:55:37;16.30;99.90
35563;DHT22;21665;40.108;18.302;2024-02-21T07:58:04;16.40;99.90
35563;DHT22;21665;40.108;18.302;2024-02-21T08:00:30;16.20;99.90
35563;DHT22;21665;40.108;18.302;2024-02-21T08:02:57;16.00;99.90
35563;DHT22;21665;40.108;18.302;2024-02-21T08:05:23;16.10;99.90
35563;DHT22;21665;40.108;18.302;2024-02-21T08:07:49;16.30;99.90
35563;DHT22;21665;40.108;18.302;2024-02-21T08:10:16;16.20;99.90
35563;DHT22;21665;40.108;18.302;2024-02-21T08:12:43;16.30;99.90
35563;DHT22;21665;40.108;18.302;2024-02-21T08:15:09;16.30;99.90
35563;DHT22;21665;40.108;18.302;2024-02-21T08:17:38;16.30;99.90
35563;DHT22;21665;40.108;18.302;2024-02-21T08:20:05;16.20;99.90
35563;DHT22;21665;40.108;18.302;2024-02-21T08:22:32;16.30;99.90
35563;DHT22;21665;40.108;18.302;2024-02-21T08:24:59;16.50;99.90
35563;DHT22;21665;40.108;18.302;2024-02-21T08:27:26;16.30;99.90
35563;DHT22;21665;40.108;18.302;2024-02-21T08:29:52;16.20;99.90
35563;DHT22;21665;40.108;18.302;2024-02-21T08:32:19;16.30;99.90
35563;DHT22;21665;40.108;18.302;2024-02-21T08:34:46;16.20;99.90
35563;DHT22;21665;40.108;18.302;2024-02-21T08:37:13;16.10;99.90
35563;DHT22;21665;40.108;18.302;2024-02-21T08:39:39;16.00;99.90
35563;DHT22;21665;40.108;18.302;2024-02-21T08:42:09;16.10;99.90
35563;DHT22;21665;40.108;18.302;2024-02-21T08:44:40;16.10;99.90
35563;DHT22;21665;40.108;18.302;2024-02-21T08:47:11;16.30;99.90
35563;DHT22;21665;40.108;18.302;2024-02-21T08:49:38;16.30;99.90
35563;DHT22;21665;40.108;18.302;2024-02-21T08:52:05;16.50;99.90
35563;DHT22;21665;40.108;18.302;2024-02-21T08:54:32;16.00;99.90
35563;DHT22;21665;40.108;18.302;2024-02-21T08:57:00;16.00;99.90
35563;DHT22;21665;40.108;18.302;2024-02-21T08:59:29;16.50;99.90
35563;DHT22;21665;40.108;18.302;2024-02-21T09:02:00;16.70;99.90
35563;DHT22;21665;40.108;18.302;2024-02-21T09:04:29;16.80;99.90
35563;DHT22;21665;40.108;18.302;2024-02-21T09:06:59;16.80;99.90
35563;DHT22;21665;40.108;18.302;2024-02-21T09:09:26;16.50;99.90
35563;DHT22;21665;40.108;18.302;2024-02-21T09:11:55;16.20;99.90
35563;DHT22;21665;40.108;18.302;2024-02-21T09:14:22;15.90;99.90
35563;DHT22;21665;40.108;18.302;2024-02-21T09:16:52;15.80;99.90
35563;DHT22;21665;40.108;18.302;2024-02-21T09:19:21;15.60;99.90
35563;DHT22;21665;40.108;18.302;2024-02-21T09:21:49;15.30;99.90
35563;DHT22;21665;40.108;18.302;2024-02-21T09:24:18;15.20;99.90
35563;DHT22;21665;40.108;18.302;2024-02-21T09:26:48;15.30;99.90
35563;DHT22;21665;40.108;18.302;2024-02-21T09:29:16;15.60;99.90
35563;DHT22;21665;40.108;18.302;2024-02-21T09:31:42;15.70;99.90
35563;DHT22;21665;40.108;18.302;2024-02-21T09:34:09;15.60;99.90
35563;DHT22;21665;40.108;18.302;2024-02-21T09:36:37;15.60;99.90
35563;DHT22;21665;40.108;18.302;2024-02-21T09:39:08;15.80;99.90
35563;DHT22;21665;40.108;18.302;2024-02-21T09:41:43;15.90;99.90
35563;DHT22;21665;40.108;18.302;2024-02-21T09:44:14;16.00;99.90
35563;DHT22;21665;40.108;18.302;2024-02-21T09:46:52;16.00;99.90
35563;DHT22;21665;40.108;18.302;2024-02-21T09:49:33;16.40;99.90
35563;DHT22;21665;40.108;18.302;2024-02-21T09:52:05;16.40;99.90
35563;DHT22;21665;40.108;18.302;2024-02-21T09:54:35;16.40;99.90
35563;DHT22;21665;40.108;18.302;2024-02-21T09:57:06;16.40;99.90
35563;DHT22;21665;40.108;18.302;2024-02-21T09:59:33;16.20;99.90
35563;DHT22;21665;40.108;18.302;2024-02-21T10:02:00;16.00;99.90
35563;DHT22;21665;40.108;18.302;2024-02-21T10:04:28;15.70;99.90
35563;DHT22;21665;40.108;18.302;2024-02-21T10:06:58;15.60;99.90
35563;DHT22;21665;40.108;18.302;2024-02-21T10:09:29;15.40;99.90
35563;DHT22;21665;40.108;18.302;2024-02-21T10:12:13;15.30;99.90
35563;DHT22;21665;40.108;18.302;2024-02-21T10:14:40;15.30;99.90
35563;DHT22;21665;40.108;18.302;2024-02-21T10:17:07;15.40;99.90
35563;DHT22;21665;40.108;18.302;2024-02-21T10:19:36;15.60;99.90
35563;DHT22;21665;40.108;18.302;2024-02-21T10:22:05;15.60;99.90
35563;DHT22;21665;40.108;18.302;2024-02-21T10:24:37;15.50;99.90
35563;DHT22;21665;40.108;18.302;2024-02-21T10:27:06;15.50;99.90
35563;DHT22;21665;40.108;18.302;2024-02-21T10:29:37;15.40;99.90
35563;DHT22;21665;40.108;18.302;2024-02-21T10:32:12;15.40;99.90
35563;DHT22;21665;40.108;18.302;2024-02-21T10:34:41;15.70;99.90
35563;DHT22;21665;40.108;18.302;2024-02-21T10:37:09;15.90;99.90
35563;DHT22;21665;40.108;18.302;2024-02-21T10:39:41;16.10;99.90
35563;DHT22;21665;40.108;18.302;2024-02-21T10:42:11;16.20;99.90
35563;DHT22;21665;40.108;18.302;2024-02-21T10:44:38;16.30;99.90
35563;DHT22;21665;40.108;18.302;2024-02-21T10:47:10;16.10;99.90
35563;DHT22;21665;40.108;18.302;2024-02-21T10:49:40;15.80;99.90
35563;DHT22;21665;40.108;18.302;2024-02-21T10:52:37;15.70;99.90
35563;DHT22;21665;40.108;18.302;2024-02-21T10:55:13;15.50;99.90
35563;DHT22;21665;40.108;18.302;2024-02-21T10:57:41;15.40;99.90
35563;DHT22;21665;40.108;18.302;2024-02-21T11:00:10;15.50;99.90
35563;DHT22;21665;40.108;18.302;2024-02-21T11:02:39;15.60;99.90
35563;DHT22;21665;40.108;18.302;2024-02-21T11:05:07;15.60;99.90
35563;DHT22;21665;40.108;18.302;2024-02-21T11:07:37;15.50;99.90
35563;DHT22;21665;40.108;18.302;2024-02-21T11:10:04;15.60;99.90
35563;DHT22;21665;40.108;18.302;2024-02-21T11:12:33;15.60;99.90
35563;DHT22;21665;40.108;18.302;2024-02-21T11:15:06;15.40;99.90
35563;DHT22;21665;40.108;18.302;2024-02-21T11:17:33;15.40;99.90
35563;DHT22;21665;40.108;18.302;2024-02-21T11:20:14;15.40;99.90
35563;DHT22;21665;40.108;18.302;2024-02-21T11:22:43;15.30;99.90
35563;DHT22;21665;40.108;18.302;2024-02-21T11:25:21;15.30;99.90
35563;DHT22;21665;40.108;18.302;2024-02-21T11:27:48;15.10;99.90
35563;DHT22;21665;40.108;18.302;2024-02-21T11:30:15;15.00;99.90
35563;DHT22;21665;40.108;18.302;2024-02-21T11:32:42;15.10;99.90
35563;DHT22;21665;40.108;18.302;2024-02-21T11:35:19;15.10;99.90
35563;DHT22;21665;40.108;18.302;2024-02-21T11:37:46;15.10;99.90
35563;DHT22;21665;40.108;18.302;2024-02-21T11:40:13;15.20;99.90
35563;DHT22;21665;40.108;18.302;2024-02-21T11:42:40;15.20;99.90
35563;DHT22;21665;40.108;18.302;2024-02-21T11:45:07;15.20;99.90
35563;DHT22;21665;40.108;18.302;2024-02-21T11:47:37;15.20;99.90
35563;DHT22;21665;40.108;18.302;2024-02-21T11:50:12;15.10;99.90
35563;DHT22;21665;40.108;18.302;2024-02-21T11:52:39;15.10;99.90
35563;DHT22;21665;40.108;18.302;2024-02-21T11:55:07;15.10;99.90
35563;DHT22;21665;40.108;18.302;2024-02-21T11:57:37;15.00;99.90
35563;DHT22;21665;40.108;18.302;2024-02-21T12:00:14;15.00;99.90
35563;DHT22;21665;40.108;18.302;2024-02-21T12:02:42;15.00;99.90
35563;DHT22;21665;40.108;18.302;2024-02-21T12:05:10;15.10;99.90
35563;DHT22;21665;40.108;18.302;2024-02-21T12:07:37;15.10;99.90
35563;DHT22;21665;40.108;18.302;2024-02-21T12:10:10;15.30;99.90
35563;DHT22;21665;40.108;18.302;2024-02-21T12:12:38;15.60;99.90
35563;DHT22;21665;40.108;18.302;2024-02-21T12:15:08;15.90;99.90
35563;DHT22;21665;40.108;18.302;2024-02-21T12:17:36;16.00;99.90
35563;DHT22;21665;40.108;18.302;2024-02-21T12:20:04;15.90;99.90
35563;DHT22;21665;40.108;18.302;2024-02-21T12:22:44;16.00;99.90
35563;DHT22;21665;40.108;18.302;2024-02-21T12:25:18;16.10;99.90
35563;DHT22;21665;40.108;18.302;2024-02-21T12:27:49;16.30;99.90
35563;DHT22;21665;40.108;18.302;2024-02-21T12:30:16;16.50;99.90
35563;DHT22;21665;40.108;18.302;2024-02-21T12:32:43;16.60;99.90
35563;DHT22;21665;40.108;18.302;2024-02-21T12:35:09;16.70;99.90
35563;DHT22;21665;40.108;18.302;2024-02-21T12:37:36;16.50;99.90
35563;DHT22;21665;40.108;18.302;2024-02-21T12:40:05;16.50;99.90
35563;DHT22;21665;40.108;18.302;2024-02-21T12:42:35;16.60;99.90
35563;DHT22;21665;40.108;18.302;2024-02-21T12:45:03;16.60;99.90
35563;DHT22;21665;40.108;18.302;2024-02-21T12:47:29;16.50;99.90
35563;DHT22;21665;40.108;18.302;2024-02-21T12:49:56;16.30;99.90
35563;DHT22;21665;40.108;18.302;2024-02-21T12:52:22;16.30;99.90
35563;DHT22;21665;40.108;18.302;2024-02-21T12:54:49;16.30;99.90
35563;DHT22;21665;40.108;18.302;2024-02-21T12:57:17;16.40;99.90
35563;DHT22;21665;40.108;18.302;2024-02-21T12:59:44;16.30;99.90
35563;DHT22;21665;40.108;18.302;2024-02-21T13:02:11;16.40;99.90
35563;DHT22;21665;40.108;18.302;2024-02-21T13:04:38;16.40;99.90
35563;DHT22;21665;40.108;18.302;2024-02-21T13:07:07;16.40;99.90
35563;DHT22;21665;40.108;18.302;2024-02-21T13:09:37;16.40;99.90
35563;DHT22;21665;40.108;18.302;2024-02-21T13:12:04;16.50;99.90
35563;DHT22;21665;40.108;18.302;2024-02-21T13:14:32;16.60;99.90
35563;DHT22;21665;40.108;18.302;2024-02-21T13:17:01;16.40;99.90
35563;DHT22;21665;40.108;18.302;2024-02-21T13:19:27;16.50;99.90
35563;DHT22;21665;40.108;18.302;2024-02-21T13:21:54;16.40;99.90
35563;DHT22;21665;40.108;18.302;2024-02-21T13:24:23;16.30;99.90
35563;DHT22;21665;40.108;18.302;2024-02-21T13:26:49;16.50;99.90
35563;DHT22;21665;40.108;18.302;2024-02-21T13:29:16;16.40;99.90
35563;DHT22;21665;40.108;18.302;2024-02-21T13:31:43;16.40;99.90
35563;DHT22;21665;40.108;18.302;2024-02-21T13:34:10;16.40;99.90
35563;DHT22;21665;40.108;18.302;2024-02-21T13:36:37;16.20;99.90
35563;DHT22;21665;40.108;18.302;2024-02-21T13:39:07;16.30;99.90
35563;DHT22;21665;40.108;18.302;2024-02-21T13:41:35;16.30;99.90
35563;DHT22;21665;40.108;18.302;2024-02-21T13:44:02;16.30;99.90
35563;DHT22;21665;40.108;18.302;2024-02-21T13:46:33;16.40;99.90
35563;DHT22;21665;40.108;18.302;2024-02-21T13:49:05;16.30;99.90
35563;DHT22;21665;40.108;18.302;2024-02-21T13:51:37;16.40;99.90
35563;DHT22;21665;40.108;18.302;2024-02-21T13:54:07;16.30;99.90
35563;DHT22;21665;40.108;18.302;2024-02-21T13:56:39;16.40;99.90
35563;DHT22;21665;40.108;18.302;2024-02-21T13:59:06;16.40;99.90
35563;DHT22;21665;40.108;18.302;2024-02-21T14:01:38;16.50;99.90
35563;DHT22;21665;40.108;18.302;2024-02-21T14:04:08;16.20;99.90
35563;DHT22;21665;40.108;18.302;2024-02-21T14:06:35;16.30;99.90
35563;DHT22;21665;40.108;18.302;2024-02-21T14:09:01;16.40;99.90
35563;DHT22;21665;40.108;18.302;2024-02-21T14:11:32;16.20;99.90
35563;DHT22;21665;40.108;18.302;2024-02-21T14:13:58;16.10;99.90
35563;DHT22;21665;40.108;18.302;2024-02-21T14:16:25;16.10;99.90
35563;DHT22;21665;40.108;18.302;2024-02-21T14:18:52;16.20;99.90
35563;DHT22;21665;40.108;18.302;2024-02-21T14:21:21;16.00;99.90
35563;DHT22;21665;40.108;18.302;2024-02-21T14:24:01;16.00;99.90
35563;DHT22;21665;40.108;18.302;2024-02-21T14:26:30;16.10;99.90
35563;DHT22;21665;40.108;18.302;2024-02-21T14:29:00;16.00;99.90
35563;DHT22;21665;40.108;18.302;2024-02-21T14:31:33;16.10;99.90
35563;DHT22;21665;40.108;18.302;2024-02-21T14:34:03;16.20;99.90
35563;DHT22;21665;40.108;18.302;2024-02-21T14:36:33;16.20;99.90
35563;DHT22;21665;40.108;18.302;2024-02-21T14:39:01;16.10;99.90
35563;DHT22;21665;40.108;18.302;2024-02-21T14:41:28;16.00;99.90
35563;DHT22;21665;40.108;18.302;2024-02-21T14:43:56;15.90;99.90
35563;DHT22;21665;40.108;18.302;2024-02-21T14:46:26;15.80;99.90
35563;DHT22;21665;40.108;18.302;2024-02-21T14:48:56;15.80;99.90
35563;DHT22;21665;40.108;18.302;2024-02-21T14:51:23;15.60;99.90
35563;DHT22;21665;40.108;18.302;2024-02-21T14:53:50;15.50;99.90
35563;DHT22;21665;40.108;18.302;2024-02-21T14:56:18;15.30;99.90
35563;DHT22;21665;40.108;18.302;2024-02-21T14:58:45;15.30;99.90
35563;DHT22;21665;40.108;18.302;2024-02-21T15:01:22;15.30;99.90
35563;DHT22;21665;40.108;18.302;2024-02-21T15:03:49;15.30;99.90
35563;DHT22;21665;40.108;18.302;2024-02-21T15:06:16;15.30;99.90
35563;DHT22;21665;40.108;18.302;2024-02-21T15:08:44;15.20;99.90
35563;DHT22;21665;40.108;18.302;2024-02-21T15:11:10;15.20;99.90
35563;DHT22;21665;40.108;18.302;2024-02-21T15:13:37;15.20;99.90
35563;DHT22;21665;40.108;18.302;2024-02-21T15:16:05;15.10;99.90
35563;DHT22;21665;40.108;18.302;2024-02-21T15:18:31;15.00;99.90
35563;DHT22;21665;40.108;18.302;2024-02-21T15:21:04;14.90;99.90
35563;DHT22;21665;40.108;18.302;2024-02-21T15:23:31;14.90;99.90
35563;DHT22;21665;40.108;18.302;2024-02-21T15:25:57;14.80;99.90
35563;DHT22;21665;40.108;18.302;2024-02-21T15:28:25;14.80;99.90
35563;DHT22;21665;40.108;18.302;2024-02-21T15:30:54;14.80;99.90